Airfield :
LOGIN :

Register | Disclaimer

   EN    FR    IT 

 










Legend :    VFR   Marginal VFR   IFR   Intensive IFR   Very Intensive IFR
Visi :
Ceiling :
>= 8 km
>= 3000ft
5 to 8 km
1000 to 3000 ft
1500m to 5 km
500 to 1000 ft
800 to 1500m
200 to 500 ft
< 800m
< 200 ft
Symbols :   Thunderstorms  Fog  Heavy snow  Heavy precipitations  Wind > 20 kt
SIGMETs :     Misc.  Thunderstorms  Icing  Turbulence  Mountain Waves  Volcanic Ashes







- Airport Elevation : 1115 ft
- IATA code : GRZ


LOWG - Graz

CURRENT METAR :
  • 182020Z AUTO VRB01KT 9999 -SHRA FEW018 SCT020 BKN026 02/M00 Q1017 NOSIG

EXPIRED METARs :
  • 181950Z AUTO 04003KT 9999 FEW014 BKN020 03/00 Q1018 NOSIG
  • 181920Z AUTO 36004KT 330V030 9999 -RA FEW014 SCT016 BKN028 03/M00 Q1018 NOSIG
  • 181850Z AUTO 01003KT 330V050 9999 -RA FEW016 SCT022 BKN030 03/M00 Q1018 NOSIG
  • 181820Z AUTO 26002KT 9999 -SHRA FEW026 SCT030 BKN042 03/M00 Q1018 NOSIG
  • 181750Z 18002KT 9999 -RASN FEW025 BKN050 03/00 Q1018 NOSIG

TAF TAF LOWG
Valid from the 18 at 18:00 until the 19 at 18:00 UTC


181715Z 1818/1918 VRB02KT 9999 BKN040 TX03/1818Z TN00/1905Z
BECMG 1821/1900 8000 -SN OVC020
TEMPO 1900/1912 4500 BR SCT006 BKN012
PROB30
TEMPO 1906/1908 2000 SN OVC005
TEMPO 1915/1918 BKN012
No reported NOTAMs for that airfield.



MET'MAP, your aeronautical weather chart ! - Copyright ORBIFLY December 2007 - Disclaimer

ORBIFLY MET'MAP TEAM :

Programming & Development : Alexandra Zaïnal
Concept & Development : Baudouin d'Aumeries
Co-Development & Prog : Marc-Olivier Méhu
Technical & hardware support : Manuel Goepfert

Contact : metmap@orbifly.com




SOURCES & CREDITS :

   NOAA